createdAt,value
2022-07-29T00:00:24.424Z,98009.74
2022-07-29T00:03:04.262Z,98011.03
2022-07-29T00:05:32.817Z,98011.01
2022-07-29T00:08:01.029Z,98009.64
2022-07-29T00:10:29.189Z,98007.13
2022-07-29T00:12:57.180Z,98003.06
2022-07-29T00:15:25.228Z,97997.38
2022-07-29T00:17:53.017Z,97994.87
2022-07-29T00:20:20.867Z,97991.16
2022-07-29T00:22:48.652Z,97988.45
2022-07-29T00:25:16.863Z,97992.88
2022-07-29T00:27:44.667Z,97995.37
2022-07-29T00:30:12.993Z,97995.63
2022-07-29T00:32:41.391Z,97990.03
2022-07-29T00:35:28.080Z,97986.04
2022-07-29T00:37:56.178Z,97982.38
2022-07-29T00:40:24.363Z,97978.84
2022-07-29T00:42:53.233Z,97978.44
2022-07-29T00:45:21.434Z,97977.54
2022-07-29T00:47:49.608Z,97971.48
2022-07-29T00:50:18.011Z,97973.60
2022-07-29T00:52:46.246Z,97974.49
2022-07-29T00:55:15.867Z,97976.83
2022-07-29T00:57:45.017Z,97975.35
2022-07-29T01:00:15.344Z,97973.86
2022-07-29T01:02:43.466Z,97971.20
2022-07-29T01:05:12.147Z,97971.95
2022-07-29T01:07:40.299Z,97972.73
2022-07-29T01:10:09.986Z,97972.58
2022-07-29T01:12:39.174Z,97973.11
2022-07-29T01:15:08.787Z,97968.42
2022-07-29T01:17:52.778Z,97969.34
2022-07-29T01:20:37.704Z,97971.27
2022-07-29T01:23:12.230Z,97970.86
2022-07-29T01:25:58.595Z,97969.11
2022-07-29T01:28:38.922Z,97969.23
2022-07-29T01:31:08.900Z,97969.36
2022-07-29T01:33:50.707Z,97963.67
2022-07-29T01:36:24.651Z,97960.13
2022-07-29T01:39:00.137Z,97957.81
2022-07-29T01:41:30.081Z,97958.88
2022-07-29T01:44:00.663Z,97959.96
2022-07-29T01:46:34.516Z,97957.28
2022-07-29T01:49:12.774Z,97954.83
2022-07-29T01:51:48.751Z,97948.58
2022-07-29T01:54:27.423Z,97951.77
2022-07-29T01:56:58.052Z,97951.77
2022-07-29T01:59:27.031Z,97952.59
2022-07-29T02:01:56.192Z,97951.79
2022-07-29T02:04:29.525Z,97956.20
2022-07-29T02:07:00.644Z,97958.05
2022-07-29T02:09:30.577Z,97957.98
2022-07-29T02:11:59.760Z,97957.10
2022-07-29T02:14:29.558Z,97955.06
2022-07-29T02:16:59.388Z,97954.36
2022-07-29T02:19:28.908Z,97951.23
2022-07-29T02:21:59.223Z,97950.36
2022-07-29T02:24:27.774Z,97947.52
2022-07-29T02:26:57.682Z,97943.73
2022-07-29T02:29:27.311Z,97944.16
2022-07-29T02:31:56.332Z,97948.12
2022-07-29T02:34:24.582Z,97946.93
2022-07-29T02:36:53.433Z,97952.41
2022-07-29T02:39:22.848Z,97950.92
2022-07-29T02:41:58.561Z,97947.35
2022-07-29T02:44:31.246Z,97947.48
2022-07-29T02:47:02.449Z,97948.45
2022-07-29T02:49:30.731Z,97947.50
2022-07-29T02:52:02.578Z,97947.85
2022-07-29T02:54:50.616Z,97950.94
2022-07-29T02:57:54.549Z,97949.73
2022-07-29T03:00:27.692Z,97950.42
2022-07-29T03:02:57.662Z,97950.41
2022-07-29T03:05:25.716Z,97948.55
2022-07-29T03:08:02.175Z,97943.86
2022-07-29T03:10:30.597Z,97943.27
2022-07-29T03:12:59.470Z,97940.60
2022-07-29T03:15:28.126Z,97942.75
2022-07-29T03:17:56.723Z,97947.35
2022-07-29T03:20:26.350Z,97948.78
2022-07-29T03:22:54.101Z,97951.16
2022-07-29T03:25:22.104Z,97949.65
2022-07-29T03:27:49.959Z,97947.24
2022-07-29T03:30:18.393Z,97951.57
2022-07-29T03:32:51.937Z,97954.72
2022-07-29T03:35:21.245Z,97959.42
2022-07-29T03:37:49.770Z,97959.91
2022-07-29T03:40:37.784Z,97959.05
2022-07-29T03:43:07.028Z,97963.67
2022-07-29T03:45:35.390Z,97959.80
2022-07-29T03:48:06.770Z,97961.30
2022-07-29T03:50:35.226Z,97968.14
2022-07-29T03:53:04.053Z,97966.98
2022-07-29T03:55:34.726Z,97963.52
2022-07-29T03:58:03.316Z,97964.41
2022-07-29T04:00:31.579Z,97968.16
2022-07-29T04:02:59.545Z,97972.12
2022-07-29T04:05:27.394Z,97967.91
2022-07-29T04:07:55.322Z,97970.06
2022-07-29T04:10:30.623Z,97969.40
2022-07-29T04:13:00.635Z,97964.83
2022-07-29T04:15:30.982Z,97966.10
2022-07-29T04:18:00.068Z,97965.94
2022-07-29T04:20:28.264Z,97969.23
2022-07-29T04:22:56.055Z,97969.83
2022-07-29T04:25:24.525Z,97969.75
2022-07-29T04:28:01.923Z,97971.61
2022-07-29T04:30:31.209Z,97970.34
2022-07-29T04:32:59.862Z,97971.52
2022-07-29T04:35:28.086Z,97970.75
2022-07-29T04:37:55.986Z,97967.94
2022-07-29T04:40:23.800Z,97968.59
2022-07-29T04:42:51.981Z,97967.98
2022-07-29T04:45:22.813Z,97966.40
2022-07-29T04:47:51.193Z,97966.25
2022-07-29T04:50:19.195Z,97967.15
2022-07-29T04:52:47.008Z,97969.15
2022-07-29T04:55:14.866Z,97963.02
2022-07-29T04:57:42.797Z,97963.92
2022-07-29T05:00:11.049Z,97965.55
2022-07-29T05:02:39.032Z,97968.70
2022-07-29T05:05:07.315Z,97973.90
2022-07-29T05:07:35.341Z,97973.89
2022-07-29T05:10:04.158Z,97966.24
2022-07-29T05:12:32.151Z,97969.62
2022-07-29T05:14:59.994Z,97971.02
2022-07-29T05:17:27.912Z,97971.64
2022-07-29T05:19:55.710Z,97973.67
2022-07-29T05:22:23.579Z,97973.83
2022-07-29T05:24:51.458Z,97977.06
2022-07-29T05:27:20.099Z,97975.77
2022-07-29T05:29:47.929Z,97973.24
2022-07-29T05:32:15.973Z,97971.33
2022-07-29T05:34:50.866Z,97972.42
2022-07-29T05:37:22.716Z,97977.38
2022-07-29T05:39:56.335Z,97979.48
2022-07-29T05:42:25.881Z,97985.61
2022-07-29T05:44:54.156Z,97991.13
2022-07-29T05:47:22.407Z,97992.94
2022-07-29T05:49:50.472Z,97990.92
2022-07-29T05:52:18.707Z,97988.90
2022-07-29T05:54:46.779Z,97985.45
2022-07-29T05:57:18.279Z,97984.29
2022-07-29T05:59:46.547Z,97983.55
2022-07-29T06:02:14.693Z,97985.82
2022-07-29T06:04:42.683Z,97986.95
2022-07-29T06:07:10.524Z,97988.09
2022-07-29T06:09:38.344Z,97987.48
2022-07-29T06:12:06.226Z,97988.20
2022-07-29T06:14:34.271Z,97990.61
2022-07-29T06:17:02.318Z,97990.45
2022-07-29T06:19:30.505Z,97988.30
2022-07-29T06:21:58.489Z,97986.05
2022-07-29T06:24:26.751Z,97986.50
2022-07-29T06:26:54.558Z,97987.83
2022-07-29T06:29:22.406Z,97983.73
2022-07-29T06:31:50.376Z,97986.15
2022-07-29T06:34:18.821Z,97985.54
2022-07-29T06:36:47.437Z,97981.98
2022-07-29T06:39:16.151Z,97983.44
2022-07-29T06:41:47.629Z,97986.02
2022-07-29T06:44:15.848Z,97980.54
2022-07-29T06:46:45.253Z,97977.92
2022-07-29T06:49:15.111Z,97977.52
2022-07-29T06:51:43.219Z,97978.55
2022-07-29T06:54:11.196Z,97977.52
2022-07-29T06:56:40.427Z,97976.49
2022-07-29T06:59:09.276Z,97979.43
2022-07-29T07:01:38.306Z,97974.06
2022-07-29T07:04:06.499Z,97968.31
2022-07-29T07:06:34.582Z,97965.08
2022-07-29T07:09:02.695Z,97968.42
2022-07-29T07:11:30.467Z,97964.31
2022-07-29T07:14:03.027Z,97969.75
2022-07-29T07:16:32.947Z,97970.98
2022-07-29T07:19:01.231Z,97964.72
2022-07-29T07:21:30.547Z,97959.83
2022-07-29T07:23:59.260Z,97960.97
2022-07-29T07:26:28.190Z,97958.38
2022-07-29T07:28:56.274Z,97946.54
2022-07-29T07:31:24.528Z,97945.10
2022-07-29T07:33:54.783Z,97945.98
2022-07-29T07:36:23.120Z,97948.38
2022-07-29T07:38:51.343Z,97951.62
2022-07-29T07:41:19.503Z,97946.19
2022-07-29T07:43:47.648Z,97942.59
2022-07-29T07:46:15.980Z,97946.95
2022-07-29T07:48:44.777Z,97946.88
2022-07-29T07:51:13.107Z,97945.50
2022-07-29T07:53:41.217Z,97943.79
2022-07-29T07:56:11.713Z,97946.65
2022-07-29T07:58:40.749Z,97947.48
2022-07-29T08:01:09.461Z,97937.93
2022-07-29T08:03:37.623Z,97939.11
2022-07-29T08:06:06.008Z,97936.64
2022-07-29T08:08:33.962Z,97938.80
2022-07-29T08:11:08.334Z,97938.23
2022-07-29T08:13:38.140Z,97934.92
2022-07-29T08:16:13.207Z,97933.84
2022-07-29T08:18:42.214Z,97933.44
2022-07-29T08:21:10.435Z,97935.65
2022-07-29T08:23:50.518Z,97939.44
2022-07-29T08:26:23.594Z,97942.98
2022-07-29T08:28:51.926Z,97941.52
2022-07-29T08:31:19.869Z,97944.15
2022-07-29T08:33:48.131Z,97944.84
2022-07-29T08:36:15.976Z,97940.15
2022-07-29T08:38:43.956Z,97939.38
2022-07-29T08:41:12.134Z,97936.52
2022-07-29T08:43:42.016Z,97939.00
2022-07-29T08:46:10.045Z,97943.16
2022-07-29T08:48:38.244Z,97938.04
2022-07-29T08:51:08.166Z,97933.59
2022-07-29T08:53:39.344Z,97933.58
2022-07-29T08:56:07.695Z,97932.15
2022-07-29T08:58:36.731Z,97929.35
2022-07-29T09:01:12.378Z,97928.35
2022-07-29T09:03:41.400Z,97922.80
2022-07-29T09:06:09.499Z,97921.48
2022-07-29T09:08:37.489Z,97923.21
2022-07-29T09:11:05.745Z,97917.11
2022-07-29T09:13:34.208Z,97919.53
2022-07-29T09:16:08.577Z,97915.32
2022-07-29T09:18:37.498Z,97917.34
2022-07-29T09:21:24.800Z,97915.85
2022-07-29T09:24:09.030Z,97909.69
2022-07-29T09:26:40.515Z,97907.73
2022-07-29T09:29:09.967Z,97901.71
2022-07-29T09:31:42.227Z,97894.55
2022-07-29T09:34:11.366Z,97899.48
2022-07-29T09:36:43.669Z,97895.20
2022-07-29T09:39:11.812Z,97895.79
2022-07-29T09:41:47.107Z,97897.45
2022-07-29T09:44:16.047Z,97885.31
2022-07-29T09:47:09.508Z,97881.14
2022-07-29T09:49:50.873Z,97889.46
2022-07-29T09:52:18.698Z,97891.23
2022-07-29T09:54:46.666Z,97886.58
2022-07-29T09:57:30.324Z,97882.21
2022-07-29T10:00:00.701Z,97876.67
2022-07-29T10:02:29.601Z,97876.28
2022-07-29T10:04:58.168Z,97872.62
2022-07-29T10:07:26.211Z,97867.30
2022-07-29T10:09:55.754Z,97858.49
2022-07-29T10:12:24.474Z,97855.38
2022-07-29T10:14:52.403Z,97856.08
2022-07-29T10:17:20.368Z,97849.52
2022-07-29T10:19:48.626Z,97842.88
2022-07-29T10:22:31.155Z,97843.27
2022-07-29T10:25:04.417Z,97842.38
2022-07-29T10:27:32.917Z,97839.13
2022-07-29T10:30:00.928Z,97844.08
2022-07-29T10:32:28.682Z,97843.40
2022-07-29T10:35:15.330Z,97839.55
2022-07-29T10:37:46.023Z,97837.46
2022-07-29T10:40:51.615Z,97836.20
2022-07-29T10:43:25.536Z,97829.34
2022-07-29T10:45:57.203Z,97822.30
2022-07-29T10:48:26.155Z,97819.21
2022-07-29T10:50:56.815Z,97815.73
2022-07-29T10:53:25.048Z,97809.23
2022-07-29T10:55:53.804Z,97807.95
2022-07-29T10:58:23.559Z,97805.90
2022-07-29T11:00:52.628Z,97811.60
2022-07-29T11:03:39.569Z,97816.99
2022-07-29T11:06:18.017Z,97828.73
2022-07-29T11:09:12.857Z,97841.75
2022-07-29T11:11:51.683Z,97843.42
2022-07-29T11:14:39.803Z,97831.01
2022-07-29T11:17:09.246Z,97830.05
2022-07-29T11:19:46.756Z,97831.56
2022-07-29T11:22:34.538Z,97822.75
2022-07-29T11:25:16.857Z,97821.80
2022-07-29T11:27:45.873Z,97826.13
2022-07-29T11:30:14.507Z,97830.35
2022-07-29T11:32:44.718Z,97831.15
2022-07-29T11:35:36.752Z,97832.32
2022-07-29T11:38:23.824Z,97825.80
2022-07-29T11:41:14.575Z,97824.79
2022-07-29T11:43:50.624Z,97821.88
2022-07-29T11:46:38.858Z,97815.65
2022-07-29T11:49:09.203Z,97817.79
2022-07-29T11:51:48.223Z,97814.62
2022-07-29T11:57:11.281Z,97807.65
2022-07-29T11:59:42.757Z,97802.77
2022-07-29T12:02:37.057Z,97802.10
2022-07-29T12:05:00.613Z,97801.89
2022-07-29T12:07:41.221Z,97802.13
2022-07-29T12:10:19.747Z,97799.66
2022-07-29T12:12:57.640Z,97797.72
2022-07-29T12:15:39.281Z,97801.73
2022-07-29T12:18:19.732Z,97801.69
2022-07-29T12:21:05.031Z,97801.48
2022-07-29T12:23:34.338Z,97800.50
2022-07-29T12:26:07.207Z,97797.66
2022-07-29T12:28:39.610Z,97801.82
2022-07-29T12:31:14.083Z,97800.48
2022-07-29T12:33:42.363Z,97795.98
2022-07-29T12:36:17.290Z,97789.37
2022-07-29T12:38:45.845Z,97783.91
2022-07-29T12:41:14.068Z,97774.73
2022-07-29T12:43:53.735Z,97781.31
2022-07-29T12:46:21.942Z,97772.58
2022-07-29T12:48:57.569Z,97772.33
2022-07-29T12:51:37.470Z,97767.73
2022-07-29T12:54:12.532Z,97765.55
2022-07-29T12:56:45.278Z,97762.74
2022-07-29T12:59:14.806Z,97767.36
2022-07-29T13:01:42.824Z,97763.30
2022-07-29T13:04:11.132Z,97762.92
2022-07-29T13:06:41.354Z,97769.08
2022-07-29T13:09:15.273Z,97768.38
2022-07-29T13:11:50.711Z,97774.42
2022-07-29T13:14:32.803Z,97773.33
2022-07-29T13:17:01.745Z,97771.83
2022-07-29T13:19:43.393Z,97768.39
2022-07-29T13:22:12.289Z,97766.20
2022-07-29T13:24:50.766Z,97763.52
2022-07-29T13:27:19.192Z,97762.27
2022-07-29T13:29:47.511Z,97762.35
2022-07-29T13:32:15.433Z,97761.60
2022-07-29T13:34:43.459Z,97769.08
2022-07-29T13:37:11.461Z,97766.88
2022-07-29T13:39:39.597Z,97768.66
2022-07-29T13:42:10.897Z,97776.20
2022-07-29T13:44:39.241Z,97779.80
2022-07-29T13:47:08.150Z,97784.02
2022-07-29T13:49:36.812Z,97789.21
2022-07-29T13:52:05.786Z,97795.24
2022-07-29T13:54:36.629Z,97800.65
2022-07-29T13:57:06.675Z,97800.83
2022-07-29T13:59:34.974Z,97800.13
2022-07-29T14:02:03.054Z,97804.20
2022-07-29T14:04:30.947Z,97803.86
2022-07-29T14:06:58.882Z,97805.64
2022-07-29T14:09:37.308Z,97811.36
2022-07-29T14:12:09.736Z,97809.70
2022-07-29T14:14:37.782Z,97807.45
2022-07-29T14:17:07.802Z,97810.93
2022-07-29T14:19:39.953Z,97807.80
2022-07-29T14:22:09.488Z,97808.02
2022-07-29T14:24:39.000Z,97804.11
2022-07-29T14:27:07.687Z,97806.21
2022-07-29T14:29:37.946Z,97805.48
2022-07-29T14:32:07.389Z,97805.85
2022-07-29T14:34:36.161Z,97804.36
2022-07-29T14:37:06.345Z,97803.49
2022-07-29T14:39:42.165Z,97811.03
2022-07-29T14:42:12.829Z,97807.84
2022-07-29T14:44:42.762Z,97806.89
2022-07-29T14:47:10.915Z,97804.48
2022-07-29T14:49:38.763Z,97806.08
2022-07-29T14:52:07.175Z,97804.03
2022-07-29T14:54:35.055Z,97804.96
2022-07-29T14:57:02.991Z,97798.70
2022-07-29T14:59:30.838Z,97797.05
2022-07-29T15:01:58.931Z,97796.48
2022-07-29T15:04:26.876Z,97797.78
2022-07-29T15:06:54.813Z,97796.28
2022-07-29T15:09:24.089Z,97795.09
2022-07-29T15:11:52.338Z,97796.81
2022-07-29T15:14:20.203Z,97803.82
2022-07-29T15:16:48.381Z,97801.77
2022-07-29T15:19:16.502Z,97804.70
2022-07-29T15:21:59.313Z,97810.72
2022-07-29T15:24:27.718Z,97806.79
2022-07-29T15:26:56.015Z,97801.63
2022-07-29T15:29:24.097Z,97791.86
2022-07-29T15:31:51.878Z,97780.64
2022-07-29T15:34:21.622Z,97779.77
2022-07-29T15:36:52.607Z,97781.73
2022-07-29T15:39:21.996Z,97780.19
2022-07-29T15:41:50.699Z,97778.48
2022-07-29T15:44:18.983Z,97774.29
2022-07-29T15:47:05.003Z,97774.05
2022-07-29T15:49:47.190Z,97768.01
2022-07-29T15:52:26.007Z,97763.73
2022-07-29T15:54:55.784Z,97763.58
2022-07-29T15:57:24.687Z,97760.17
2022-07-29T15:59:52.835Z,97762.06
2022-07-29T16:02:20.677Z,97756.11
2022-07-29T16:04:49.005Z,97753.64
2022-07-29T16:07:17.077Z,97761.09
2022-07-29T16:09:49.329Z,97761.29
2022-07-29T16:12:21.159Z,97764.26
2022-07-29T16:14:51.036Z,97766.77
2022-07-29T16:17:19.183Z,97771.83
2022-07-29T16:19:47.242Z,97776.79
2022-07-29T16:22:15.041Z,97777.65
2022-07-29T16:24:42.917Z,97773.91
2022-07-29T16:27:10.717Z,97768.56
2022-07-29T16:29:38.545Z,97761.23
2022-07-29T16:32:06.570Z,97759.92
2022-07-29T16:34:34.964Z,97764.40
2022-07-29T16:37:03.393Z,97769.46
2022-07-29T16:39:31.519Z,97776.21
2022-07-29T16:42:01.515Z,97780.95
2022-07-29T16:44:31.069Z,97784.46
2022-07-29T16:47:00.188Z,97787.29
2022-07-29T16:49:28.748Z,97792.08
2022-07-29T16:51:56.693Z,97795.73
2022-07-29T16:54:24.821Z,97805.36
2022-07-29T16:56:52.832Z,97817.73
2022-07-29T16:59:20.689Z,97847.11
2022-07-29T17:01:49.026Z,97862.43
2022-07-29T17:04:17.464Z,97864.77
2022-07-29T17:06:45.498Z,97856.48
2022-07-29T17:09:16.181Z,97855.44
2022-07-29T17:11:53.111Z,97861.93
2022-07-29T17:14:25.187Z,97868.30
2022-07-29T17:17:02.400Z,97873.75
2022-07-29T17:19:31.958Z,97873.21
2022-07-29T17:22:08.917Z,97878.05
2022-07-29T17:24:40.274Z,97876.79
2022-07-29T17:27:09.754Z,97872.11
2022-07-29T17:29:39.242Z,97871.35
2022-07-29T17:32:08.142Z,97869.26
2022-07-29T17:34:36.869Z,97867.80
2022-07-29T17:37:05.276Z,97857.00
2022-07-29T17:39:35.198Z,97853.48
2022-07-29T17:42:03.669Z,97849.86
2022-07-29T17:44:32.463Z,97848.55
2022-07-29T17:47:04.869Z,97854.25
2022-07-29T17:49:33.418Z,97853.38
2022-07-29T17:52:06.238Z,97855.57
2022-07-29T17:54:33.995Z,97860.64
2022-07-29T17:57:02.210Z,97862.02
2022-07-29T17:59:30.628Z,97865.04
2022-07-29T18:01:58.518Z,97867.98
2022-07-29T18:04:26.487Z,97865.45
2022-07-29T18:06:54.253Z,97875.02
2022-07-29T18:09:22.158Z,97881.98
2022-07-29T18:11:49.905Z,97884.11
2022-07-29T18:14:17.674Z,97882.02
2022-07-29T18:16:45.929Z,97883.20
2022-07-29T18:19:14.127Z,97880.36
2022-07-29T18:21:51.871Z,97875.04
2022-07-29T18:24:27.639Z,97871.25
2022-07-29T18:26:56.633Z,97871.52
2022-07-29T18:29:24.735Z,97872.08
2022-07-29T18:31:52.701Z,97868.91
2022-07-29T18:34:20.450Z,97870.17
2022-07-29T18:36:48.260Z,97873.14
2022-07-29T18:39:20.893Z,97869.09
2022-07-29T18:41:51.294Z,97869.56
2022-07-29T18:44:21.904Z,97872.55
2022-07-29T18:46:51.531Z,97871.98
2022-07-29T18:49:19.983Z,97873.36
2022-07-29T18:51:48.556Z,97876.86
2022-07-29T18:54:17.676Z,97875.41
2022-07-29T18:56:46.357Z,97878.46
2022-07-29T18:59:19.962Z,97878.35
2022-07-29T19:01:48.976Z,97877.81
2022-07-29T19:04:17.388Z,97871.22
2022-07-29T19:06:45.172Z,97874.27
2022-07-29T19:09:13.256Z,97875.27
2022-07-29T19:11:41.056Z,97870.03
2022-07-29T19:14:09.192Z,97871.88
2022-07-29T19:16:37.015Z,97875.61
2022-07-29T19:19:05.870Z,97877.92
2022-07-29T19:21:34.049Z,97880.17
2022-07-29T19:24:06.711Z,97882.55
2022-07-29T19:26:38.892Z,97888.04
2022-07-29T19:29:06.789Z,97891.73
2022-07-29T19:31:34.814Z,97899.06
2022-07-29T19:34:02.678Z,97896.67
2022-07-29T19:36:31.658Z,97898.47
2022-07-29T19:39:00.555Z,97899.52
2022-07-29T19:41:28.635Z,97911.63
2022-07-29T19:43:56.691Z,97908.72
2022-07-29T19:46:25.167Z,97905.33
2022-07-29T19:48:53.605Z,97902.05
2022-07-29T19:51:22.598Z,97895.86
2022-07-29T19:53:50.819Z,97890.45
2022-07-29T19:56:18.953Z,97882.98
2022-07-29T19:58:47.314Z,97882.20
2022-07-29T20:01:16.861Z,97882.90
2022-07-29T20:03:45.084Z,97882.02
2022-07-29T20:06:13.308Z,97880.92
2022-07-29T20:08:41.133Z,97878.19
2022-07-29T20:11:09.160Z,97879.43
2022-07-29T20:13:37.169Z,97878.23
2022-07-29T20:16:06.600Z,97876.56
2022-07-29T20:18:34.697Z,97877.84
2022-07-29T20:21:04.691Z,97880.28
2022-07-29T20:23:33.169Z,97883.77
2022-07-29T20:26:04.221Z,97886.98
2022-07-29T20:28:34.008Z,97884.67
2022-07-29T20:31:01.797Z,97887.09
2022-07-29T20:33:29.621Z,97880.93
2022-07-29T20:35:57.372Z,97882.91
2022-07-29T20:38:25.106Z,97883.73
2022-07-29T20:40:55.738Z,97886.83
2022-07-29T20:43:23.969Z,97882.91
2022-07-29T20:45:52.096Z,97874.25
2022-07-29T20:48:19.957Z,97873.21
2022-07-29T20:50:48.936Z,97870.03
2022-07-29T20:53:18.039Z,97874.27
2022-07-29T20:55:46.024Z,97876.09
2022-07-29T20:58:14.456Z,97880.11
2022-07-29T21:00:42.729Z,97879.91
2022-07-29T21:03:10.758Z,97875.80
2022-07-29T21:05:38.579Z,97869.89
2022-07-29T21:08:08.752Z,97870.00
2022-07-29T21:10:36.912Z,97873.13
2022-07-29T21:13:05.008Z,97870.73
2022-07-29T21:15:33.253Z,97867.27
2022-07-29T21:18:06.100Z,97864.76
2022-07-29T21:20:33.936Z,97860.84
2022-07-29T21:23:01.915Z,97863.62
2022-07-29T21:25:29.812Z,97859.70
2022-07-29T21:28:16.463Z,97857.21
2022-07-29T21:30:44.606Z,97856.20
2022-07-29T21:33:12.878Z,97862.80
2022-07-29T21:36:01.797Z,97862.98
2022-07-29T21:38:29.980Z,97862.14
2022-07-29T21:40:58.332Z,97869.64
2022-07-29T21:43:29.407Z,97875.32
2022-07-29T21:45:57.764Z,97881.29
2022-07-29T21:48:26.942Z,97883.96
2022-07-29T21:50:55.019Z,97883.23
2022-07-29T21:53:23.222Z,97884.48
2022-07-29T21:55:55.485Z,97884.06
2022-07-29T21:58:24.944Z,97882.48
2022-07-29T22:00:52.933Z,97885.91
2022-07-29T22:03:21.214Z,97878.96
2022-07-29T22:05:49.137Z,97871.29
2022-07-29T22:08:16.926Z,97867.20
2022-07-29T22:10:44.881Z,97861.50
2022-07-29T22:13:12.632Z,97859.09
2022-07-29T22:15:45.382Z,97862.91
2022-07-29T22:18:20.800Z,97860.54
2022-07-29T22:20:49.932Z,97854.91
2022-07-29T22:23:17.759Z,97857.41
2022-07-29T22:25:45.556Z,97856.97
2022-07-29T22:28:13.525Z,97856.65
2022-07-29T22:30:41.435Z,97852.06
2022-07-29T22:33:09.253Z,97846.05
2022-07-29T22:35:48.504Z,97839.36
2022-07-29T22:38:17.530Z,97836.61
2022-07-29T22:40:45.546Z,97836.33
2022-07-29T22:43:13.691Z,97840.08
2022-07-29T22:45:41.472Z,97840.08
2022-07-29T22:48:10.604Z,97837.89
2022-07-29T22:50:39.330Z,97834.14
2022-07-29T22:53:07.116Z,97834.77
2022-07-29T22:55:35.142Z,97836.53
2022-07-29T22:58:02.983Z,97834.70
2022-07-29T23:00:31.149Z,97832.14
2022-07-29T23:02:59.048Z,97829.48
2022-07-29T23:05:26.922Z,97822.90
2022-07-29T23:07:54.742Z,97821.20
2022-07-29T23:10:22.937Z,97821.60
2022-07-29T23:12:50.985Z,97819.09
2022-07-29T23:15:19.025Z,97816.10
2022-07-29T23:17:47.379Z,97813.85
2022-07-29T23:20:15.148Z,97812.08
2022-07-29T23:22:43.134Z,97812.96
2022-07-29T23:25:10.890Z,97807.35
2022-07-29T23:27:38.823Z,97804.15
2022-07-29T23:30:07.151Z,97802.65
2022-07-29T23:32:35.098Z,97799.39
2022-07-29T23:35:05.307Z,97798.33
2022-07-29T23:37:33.879Z,97798.33
2022-07-29T23:40:01.657Z,97803.41
2022-07-29T23:42:29.487Z,97799.83
2022-07-29T23:44:57.441Z,97791.06
2022-07-29T23:47:25.260Z,97785.94
2022-07-29T23:49:53.073Z,97787.50
2022-07-29T23:52:20.999Z,97790.29
2022-07-29T23:54:48.748Z,97795.27
2022-07-29T23:57:16.693Z,97795.14
2022-07-29T23:59:44.771Z,97794.19
